Time;durP1;ratioP1;P1;durP2;ratioP2;P2;SDS_P1;SDS_P2;PMS_P1;PMS_P2;Temp;Humidity;BMP_temperature;BMP_pressure;BME280_temperature;BME280_humidity;BME280_pressure;Samples;Min_cycle;Max_cycle;Signal;HPM_P1;HPM_P2
2021/08/19 00:01:35;;;;;;;14.98;6.20;;;;;17.20;100242.00;;;;5087378;28;20490;-79
2021/08/19 00:04:02;;;;;;;9.23;6.30;;;;;17.20;100239.00;;;;5086458;28;20059;-78
2021/08/19 00:06:29;;;;;;;15.55;6.40;;;;;17.20;100257.00;;;;5075998;28;20430;-76
2021/08/19 00:08:55;;;;;;;8.90;6.40;;;;;17.10;100258.00;;;;5073358;28;20028;-79
2021/08/19 00:11:22;;;;;;;9.90;6.50;;;;;17.00;100242.00;;;;5067070;28;20036;-77
2021/08/19 00:13:49;;;;;;;11.93;6.28;;;;;17.00;100257.00;;;;5067076;28;20064;-75
2021/08/19 00:16:15;;;;;;;10.60;6.47;;;;;16.90;100258.00;;;;5066691;28;20033;-74
2021/08/19 00:18:42;;;;;;;8.30;6.28;;;;;16.90;100266.00;;;;5067052;28;20036;-77
2021/08/19 00:21:09;;;;;;;17.23;7.22;;;;;16.90;100240.00;;;;5067354;28;20037;-78
2021/08/19 00:23:36;;;;;;;12.02;7.40;;;;;16.90;100260.00;;;;5066859;28;20116;-76
2021/08/19 00:26:05;;;;;;;11.75;7.18;;;;;16.90;100255.00;;;;5066804;28;20036;-76
2021/08/19 00:28:32;;;;;;;11.43;7.07;;;;;16.80;100241.00;;;;5066887;28;20040;-80
2021/08/19 00:30:59;;;;;;;18.33;7.03;;;;;16.80;100260.00;;;;5066618;28;20107;-77
2021/08/19 00:33:26;;;;;;;11.20;7.32;;;;;16.70;100250.00;;;;5066664;28;20494;-77
2021/08/19 00:35:52;;;;;;;12.65;7.40;;;;;16.70;100256.00;;;;5066675;28;20488;-79
2021/08/19 00:38:19;;;;;;;16.95;7.22;;;;;16.70;100277.00;;;;5066844;28;20032;-77
2021/08/19 00:40:45;;;;;;;15.00;8.13;;;;;16.70;100257.00;;;;5067109;28;20515;-79
2021/08/19 00:43:12;;;;;;;13.43;7.38;;;;;16.60;100266.00;;;;5066704;28;20052;-79
2021/08/19 00:45:39;;;;;;;12.52;7.70;;;;;16.70;100259.00;;;;5066978;28;20033;-78
2021/08/19 00:48:09;;;;;;;9.77;7.50;;;;;16.70;100239.00;;;;5065880;28;20029;-76
2021/08/19 00:50:40;;;;;;;10.45;7.60;;;;;16.60;100245.00;;;;5065867;28;20511;-79
2021/08/19 00:53:07;;;;;;;12.68;8.32;;;;;16.60;100246.00;;;;5066248;28;20029;-76
2021/08/19 00:55:33;;;;;;;14.25;7.80;;;;;16.60;100245.00;;;;5066657;28;20040;-77
2021/08/19 00:58:00;;;;;;;13.05;8.55;;;;;16.60;100227.00;;;;5066481;28;20411;-77
2021/08/19 01:00:27;;;;;;;15.68;7.88;;;;;16.60;100258.00;;;;5065360;28;20025;-78
2021/08/19 01:02:58;;;;;;;9.27;7.55;;;;;16.60;100252.00;;;;5066913;28;20020;-78
2021/08/19 01:05:29;;;;;;;11.93;8.48;;;;;16.70;100238.00;;;;5066562;28;20046;-76
2021/08/19 01:07:57;;;;;;;16.50;8.48;;;;;16.70;100248.00;;;;5066760;28;20479;-77
2021/08/19 01:10:24;;;;;;;15.82;8.90;;;;;16.70;100267.00;;;;5066761;28;20028;-77
2021/08/19 01:12:51;;;;;;;16.70;8.95;;;;;16.80;100269.00;;;;5066766;28;20119;-77
2021/08/19 01:15:18;;;;;;;15.80;7.95;;;;;16.80;100238.00;;;;5066556;28;20137;-79
2021/08/19 01:17:57;;;;;;;15.57;8.40;;;;;16.80;100246.00;;;;5066107;28;20064;-75
2021/08/19 01:20:31;;;;;;;15.27;8.27;;;;;16.70;100248.00;;;;5066963;28;20070;-78
2021/08/19 01:22:59;;;;;;;14.80;7.85;;;;;16.70;100253.00;;;;5067888;28;20083;-77
2021/08/19 01:25:26;;;;;;;11.48;7.97;;;;;16.70;100239.00;;;;5070473;28;20035;-78
2021/08/19 01:27:54;;;;;;;13.25;7.80;;;;;16.80;100256.00;;;;5070264;28;20388;-77
2021/08/19 01:30:22;;;;;;;12.25;8.95;;;;;16.80;100252.00;;;;5070474;28;20515;-77
2021/08/19 01:32:50;;;;;;;13.63;8.50;;;;;16.80;100245.00;;;;5070505;28;20055;-76
2021/08/19 01:35:25;;;;;;;16.05;9.30;;;;;16.80;100229.00;;;;5070219;28;20487;-76
2021/08/19 01:37:52;;;;;;;10.07;8.75;;;;;16.80;100240.00;;;;5069735;28;20028;-76
2021/08/19 01:40:19;;;;;;;10.95;9.20;;;;;16.80;100256.00;;;;5069947;28;20032;-78
2021/08/19 01:42:46;;;;;;;16.73;8.93;;;;;16.80;100238.00;;;;5069645;28;20035;-78
2021/08/19 01:45:18;;;;;;;16.40;9.30;;;;;16.80;100245.00;;;;5069660;28;20028;-75
2021/08/19 01:47:47;;;;;;;19.70;8.55;;;;;16.80;100257.00;;;;5069733;28;20438;-77
2021/08/19 01:50:14;;;;;;;14.32;8.85;;;;;16.80;100252.00;;;;5069568;28;20522;-78
2021/08/19 01:52:44;;;;;;;19.13;8.57;;;;;16.80;100236.00;;;;5069069;28;20032;-78
2021/08/19 01:55:12;;;;;;;11.77;9.13;;;;;16.80;100250.00;;;;5069299;28;20062;-76
2021/08/19 01:57:39;;;;;;;19.33;9.00;;;;;16.80;100235.00;;;;5069815;28;20060;-78
2021/08/19 02:00:06;;;;;;;10.88;8.70;;;;;16.80;100234.00;;;;5069643;28;20108;-77
2021/08/19 02:02:33;;;;;;;17.92;9.20;;;;;16.90;100228.00;;;;5069858;28;20052;-76
2021/08/19 02:04:59;;;;;;;31.10;9.57;;;;;16.90;100216.00;;;;5069226;28;20569;-76
2021/08/19 02:07:26;;;;;;;11.95;9.02;;;;;17.00;100234.00;;;;5069347;28;20052;-77
2021/08/19 02:09:53;;;;;;;16.17;8.90;;;;;17.00;100236.00;;;;5069146;28;20633;-76
2021/08/19 02:12:19;;;;;;;13.65;8.57;;;;;17.00;100242.00;;;;5069058;28;20033;-78
2021/08/19 02:14:46;;;;;;;12.05;8.27;;;;;17.00;100235.00;;;;5069192;28;20640;-76
2021/08/19 02:17:12;;;;;;;17.33;9.32;;;;;17.00;100208.00;;;;5069432;28;20029;-78
2021/08/19 02:19:39;;;;;;;12.88;9.05;;;;;17.00;100216.00;;;;5069880;28;20423;-79
2021/08/19 02:22:05;;;;;;;18.02;9.43;;;;;17.00;100205.00;;;;5070141;28;20035;-76
2021/08/19 02:24:32;;;;;;;14.32;9.32;;;;;17.00;100206.00;;;;5068929;28;20510;-75
2021/08/19 02:26:58;;;;;;;19.00;9.52;;;;;17.00;100221.00;;;;5069137;28;20044;-77
2021/08/19 02:29:25;;;;;;;19.35;9.15;;;;;17.00;100225.00;;;;5068900;28;20035;-78
2021/08/19 02:31:51;;;;;;;17.70;9.30;;;;;17.00;100225.00;;;;5069158;28;20111;-76
2021/08/19 02:34:18;;;;;;;14.82;8.90;;;;;17.00;100211.00;;;;5068154;28;20024;-77
2021/08/19 02:36:44;;;;;;;12.43;8.68;;;;;17.10;100219.00;;;;5068431;28;20101;-78
2021/08/19 02:39:11;;;;;;;12.00;8.50;;;;;17.10;100198.00;;;;5068692;28;20395;-78
2021/08/19 02:41:38;;;;;;;15.57;9.90;;;;;17.10;100197.00;;;;5068632;28;20036;-78
2021/08/19 02:44:05;;;;;;;16.20;10.43;;;;;17.10;100198.00;;;;5068453;28;20386;-76
2021/08/19 02:46:31;;;;;;;13.52;10.40;;;;;17.10;100198.00;;;;5068981;28;20052;-76
2021/08/19 02:48:58;;;;;;;18.90;10.75;;;;;17.10;100198.00;;;;5069066;28;20029;-78
2021/08/19 02:51:24;;;;;;;27.70;10.75;;;;;17.00;100197.00;;;;5068799;28;20078;-76
2021/08/19 02:53:51;;;;;;;15.20;10.20;;;;;17.10;100207.00;;;;5068373;28;20031;-77
2021/08/19 02:56:17;;;;;;;17.25;10.52;;;;;17.00;100183.00;;;;5068605;28;20024;-79
2021/08/19 02:58:44;;;;;;;16.60;10.60;;;;;17.10;100203.00;;;;5067846;28;20036;-75
2021/08/19 03:01:10;;;;;;;20.85;10.20;;;;;17.20;100186.00;;;;5067920;28;20483;-77
2021/08/19 03:03:37;;;;;;;15.98;10.00;;;;;17.20;100196.00;;;;5068692;28;20042;-78
2021/08/19 03:06:03;;;;;;;14.60;9.43;;;;;17.20;100172.00;;;;5068320;28;20028;-77
2021/08/19 03:08:30;;;;;;;19.50;9.75;;;;;17.20;100181.00;;;;5068428;28;20054;-77
2021/08/19 03:10:57;;;;;;;20.65;10.75;;;;;17.30;100186.00;;;;5068278;28;20024;-76
2021/08/19 03:13:23;;;;;;;23.83;11.13;;;;;17.30;100165.00;;;;5068697;28;20562;-75
2021/08/19 03:15:50;;;;;;;21.88;9.60;;;;;17.30;100163.00;;;;5068471;28;20060;-77
2021/08/19 03:18:18;;;;;;;17.75;10.30;;;;;17.30;100164.00;;;;5067856;28;20028;-78
2021/08/19 03:20:45;;;;;;;15.35;10.93;;;;;17.20;100181.00;;;;5067251;28;20123;-78
2021/08/19 03:23:12;;;;;;;17.05;11.00;;;;;17.20;100170.00;;;;5067467;28;20038;-76
2021/08/19 03:25:38;;;;;;;17.67;9.80;;;;;17.10;100165.00;;;;5067677;28;20044;-75
2021/08/19 03:28:08;;;;;;;21.15;10.52;;;;;17.00;100177.00;;;;5067921;28;20442;-76
2021/08/19 03:30:35;;;;;;;12.65;9.57;;;;;17.10;100157.00;;;;5067812;28;20043;-77
2021/08/19 03:33:07;;;;;;;21.65;11.23;;;;;17.00;100157.00;;;;5067527;28;20035;-76
2021/08/19 03:35:34;;;;;;;17.48;10.15;;;;;17.00;100171.00;;;;5067159;28;20028;-75
2021/08/19 03:38:01;;;;;;;16.25;10.88;;;;;17.00;100149.00;;;;5067540;28;20660;-76
2021/08/19 03:40:27;;;;;;;18.55;10.88;;;;;17.10;100155.00;;;;5067776;28;20039;-76
2021/08/19 03:42:54;;;;;;;16.30;10.57;;;;;17.00;100163.00;;;;5068508;28;20037;-75
2021/08/19 03:45:20;;;;;;;18.42;10.68;;;;;16.90;100142.00;;;;5066807;28;20040;-78
2021/08/19 03:47:47;;;;;;;17.45;11.10;;;;;16.90;100155.00;;;;5067190;28;20415;-75
2021/08/19 03:50:14;;;;;;;22.52;11.50;;;;;16.90;100161.00;;;;5066622;28;20025;-77
2021/08/19 03:52:40;;;;;;;16.67;11.75;;;;;16.80;100146.00;;;;5067398;28;20039;-76
2021/08/19 03:55:07;;;;;;;15.63;10.93;;;;;16.90;100139.00;;;;5067380;28;20499;-76
2021/08/19 03:57:34;;;;;;;19.33;11.50;;;;;16.90;100157.00;;;;5067148;28;20491;-76
2021/08/19 04:00:00;;;;;;;14.77;11.57;;;;;16.90;100155.00;;;;5067072;28;20042;-77
2021/08/19 04:02:27;;;;;;;20.88;12.65;;;;;16.90;100135.00;;;;5066646;28;20025;-77
2021/08/19 04:04:53;;;;;;;22.98;12.45;;;;;17.10;100147.00;;;;5067053;28;20029;-76
2021/08/19 04:07:20;;;;;;;23.52;11.70;;;;;17.10;100143.00;;;;5067861;28;20027;-78
2021/08/19 04:09:46;;;;;;;21.25;12.35;;;;;17.10;100145.00;;;;5067300;28;20482;-75
2021/08/19 04:12:13;;;;;;;16.67;11.98;;;;;17.20;100138.00;;;;5067158;28;20030;-76
2021/08/19 04:14:39;;;;;;;18.05;10.70;;;;;17.20;100156.00;;;;5067038;28;20033;-76
2021/08/19 04:17:06;;;;;;;17.08;11.90;;;;;17.20;100146.00;;;;5066358;28;20036;-78
2021/08/19 04:19:33;;;;;;;17.00;11.80;;;;;17.20;100140.00;;;;5067252;28;20506;-76
2021/08/19 04:21:59;;;;;;;23.33;12.10;;;;;17.20;100139.00;;;;5066938;28;20032;-78
2021/08/19 04:24:26;;;;;;;16.67;12.00;;;;;17.30;100155.00;;;;5067149;28;20108;-76
2021/08/19 04:26:52;;;;;;;16.02;11.15;;;;;17.40;100129.00;;;;5065428;28;20020;-77
2021/08/19 04:29:19;;;;;;;18.25;11.93;;;;;17.60;100138.00;;;;5066662;28;20487;-76
2021/08/19 04:31:46;;;;;;;13.82;11.98;;;;;17.50;100146.00;;;;5066925;28;20031;-76
2021/08/19 04:34:12;;;;;;;16.10;11.25;;;;;17.60;100151.00;;;;5067650;28;20487;-75
2021/08/19 04:36:39;;;;;;;17.38;11.43;;;;;17.70;100139.00;;;;5067121;28;20039;-78
2021/08/19 04:39:06;;;;;;;17.60;11.38;;;;;17.80;100127.00;;;;5066675;28;20407;-77
2021/08/19 04:41:33;;;;;;;14.80;11.30;;;;;17.80;100147.00;;;;5066821;28;20032;-76
2021/08/19 04:43:59;;;;;;;18.92;11.85;;;;;17.70;100138.00;;;;5066191;28;20040;-76
2021/08/19 04:46:26;;;;;;;26.40;12.57;;;;;17.60;100135.00;;;;5066351;28;20082;-77
2021/08/19 04:48:52;;;;;;;16.85;11.60;;;;;17.60;100126.00;;;;5066770;28;20102;-77
2021/08/19 04:51:19;;;;;;;19.88;11.38;;;;;17.70;100142.00;;;;5066473;28;20107;-78
2021/08/19 04:53:45;;;;;;;23.77;11.35;;;;;17.80;100151.00;;;;5066774;28;20479;-75
2021/08/19 04:56:12;;;;;;;14.32;11.50;;;;;17.70;100131.00;;;;5066317;28;20044;-75
2021/08/19 04:58:38;;;;;;;20.73;11.68;;;;;17.90;100141.00;;;;5069394;28;20078;-76
2021/08/19 05:01:05;;;;;;;19.67;11.57;;;;;17.90;100137.00;;;;5070189;28;20020;-79
2021/08/19 05:03:31;;;;;;;18.38;11.50;;;;;18.10;100139.00;;;;5070810;28;20503;-78
2021/08/19 05:05:58;;;;;;;18.58;11.07;;;;;18.10;100142.00;;;;5070583;28;20021;-77
2021/08/19 05:08:24;;;;;;;21.42;11.85;;;;;18.10;100139.00;;;;5070951;28;20040;-78
2021/08/19 05:10:51;;;;;;;17.85;11.27;;;;;18.10;100110.00;;;;5069911;28;20494;-78
2021/08/19 05:13:18;;;;;;;17.15;11.18;;;;;18.00;100108.00;;;;5070235;28;20060;-77
2021/08/19 05:15:44;;;;;;;22.35;11.85;;;;;18.00;100122.00;;;;5069998;28;20028;-77
2021/08/19 05:18:11;;;;;;;20.85;11.60;;;;;18.00;100118.00;;;;5070432;28;20020;-76
2021/08/19 05:20:37;;;;;;;17.10;10.82;;;;;17.90;100091.00;;;;5070310;28;20072;-79
2021/08/19 05:23:04;;;;;;;20.35;12.00;;;;;17.90;100113.00;;;;5070255;28;20698;-75
2021/08/19 05:25:30;;;;;;;19.50;11.52;;;;;18.00;100114.00;;;;5070332;28;20070;-78
2021/08/19 05:27:57;;;;;;;20.77;11.43;;;;;18.10;100118.00;;;;5070776;28;20074;-76
2021/08/19 05:30:23;;;;;;;18.48;11.02;;;;;18.20;100118.00;;;;5068507;28;20491;-77
2021/08/19 05:32:50;;;;;;;17.65;10.57;;;;;18.30;100111.00;;;;5069636;28;20082;-78
2021/08/19 05:35:16;;;;;;;15.40;10.75;;;;;18.40;100104.00;;;;5070339;28;20020;-78
2021/08/19 05:37:43;;;;;;;14.23;10.20;;;;;18.40;100115.00;;;;5069404;28;20064;-78
2021/08/19 05:40:10;;;;;;;17.02;11.30;;;;;18.30;100087.00;;;;5069540;28;20067;-78
2021/08/19 05:42:36;;;;;;;18.45;10.95;;;;;18.40;100110.00;;;;5068886;28;20051;-78
2021/08/19 05:45:03;;;;;;;16.85;11.25;;;;;18.40;100106.00;;;;5070084;28;20545;-74
2021/08/19 05:47:29;;;;;;;15.50;11.10;;;;;18.30;100084.00;;;;5070083;28;20074;-78
2021/08/19 05:49:56;;;;;;;15.50;10.73;;;;;18.30;100085.00;;;;5069671;28;20035;-77
2021/08/19 05:52:22;;;;;;;16.95;11.43;;;;;18.50;100073.00;;;;5069254;28;20021;-76
2021/08/19 05:54:49;;;;;;;13.57;10.65;;;;;18.50;100097.00;;;;5070115;28;20038;-76
2021/08/19 05:57:16;;;;;;;18.30;11.07;;;;;18.70;100096.00;;;;5069374;28;20155;-78
2021/08/19 05:59:43;;;;;;;15.93;11.10;;;;;18.90;100094.00;;;;5069715;28;20020;-76
2021/08/19 06:02:10;;;;;;;17.90;10.70;;;;;18.90;100090.00;;;;5069913;28;20039;-77
2021/08/19 06:04:37;;;;;;;23.95;11.90;;;;;18.80;100091.00;;;;5069421;28;20040;-77
2021/08/19 06:07:04;;;;;;;15.63;11.02;;;;;18.60;100094.00;;;;5069121;28;20039;-77
2021/08/19 06:09:31;;;;;;;18.08;11.25;;;;;18.50;100096.00;;;;5068803;28;20082;-78
2021/08/19 06:11:57;;;;;;;17.95;11.20;;;;;18.40;100083.00;;;;5069051;28;20063;-78
2021/08/19 06:14:24;;;;;;;18.05;11.55;;;;;18.40;100083.00;;;;5068786;28;20064;-79
2021/08/19 06:16:51;;;;;;;23.77;12.02;;;;;18.20;100092.00;;;;5068949;28;20067;-75
2021/08/19 06:19:17;;;;;;;21.50;11.98;;;;;18.00;100081.00;;;;5069380;28;20039;-75
2021/08/19 06:21:44;;;;;;;20.05;11.23;;;;;18.10;100070.00;;;;5069556;28;20200;-78
2021/08/19 06:24:10;;;;;;;15.00;11.18;;;;;17.80;100061.00;;;;5069013;28;20025;-76
2021/08/19 06:26:37;;;;;;;18.55;11.18;;;;;17.80;100068.00;;;;5069323;28;20028;-77
2021/08/19 06:29:03;;;;;;;14.73;11.45;;;;;17.90;100076.00;;;;5068962;28;20107;-76
2021/08/19 06:31:30;;;;;;;19.98;11.40;;;;;17.90;100075.00;;;;5068764;28;20063;-76
2021/08/19 06:33:57;;;;;;;21.60;11.45;;;;;17.90;100095.00;;;;5068828;28;20074;-78
2021/08/19 06:36:23;;;;;;;20.17;11.00;;;;;17.90;100097.00;;;;5068848;28;20036;-75
2021/08/19 06:38:52;;;;;;;15.85;12.00;;;;;17.80;100087.00;;;;5068748;28;20395;-75
2021/08/19 06:41:20;;;;;;;24.40;11.02;;;;;17.90;100090.00;;;;5068885;28;20040;-77
2021/08/19 06:43:47;;;;;;;28.35;11.98;;;;;18.00;100081.00;;;;5068923;28;20024;-75
2021/08/19 06:46:14;;;;;;;14.88;11.57;;;;;17.80;100091.00;;;;5068579;28;20510;-77
2021/08/19 06:48:41;;;;;;;19.40;10.98;;;;;17.80;100068.00;;;;5068603;28;20032;-78
2021/08/19 06:51:07;;;;;;;15.50;11.63;;;;;17.80;100080.00;;;;5068567;28;20091;-76
2021/08/19 06:53:35;;;;;;;15.55;11.13;;;;;17.60;100077.00;;;;5068219;28;20032;-76
2021/08/19 06:56:03;;;;;;;16.70;12.00;;;;;17.60;100085.00;;;;5068234;28;20043;-77
2021/08/19 06:58:30;;;;;;;20.35;12.02;;;;;17.50;100083.00;;;;5068349;28;20036;-76
2021/08/19 07:00:56;;;;;;;17.77;11.90;;;;;17.30;100099.00;;;;5068038;28;20072;-75
2021/08/19 07:03:24;;;;;;;17.42;11.57;;;;;17.30;100077.00;;;;5067887;28;20025;-78
2021/08/19 07:05:50;;;;;;;17.52;12.02;;;;;17.30;100079.00;;;;5067660;28;20024;-76
2021/08/19 07:08:17;;;;;;;17.27;11.68;;;;;17.20;100100.00;;;;5068441;28;20047;-76
2021/08/19 07:10:43;;;;;;;16.60;11.73;;;;;17.30;100081.00;;;;5068694;28;20032;-74
2021/08/19 07:13:10;;;;;;;20.77;12.27;;;;;17.40;100087.00;;;;5068833;28;20043;-77
2021/08/19 07:15:37;;;;;;;14.65;11.88;;;;;17.40;100075.00;;;;5068022;28;20104;-76
2021/08/19 07:18:03;;;;;;;17.15;11.48;;;;;17.50;100077.00;;;;5068140;28;20029;-76
2021/08/19 07:20:30;;;;;;;18.63;10.70;;;;;17.80;100070.00;;;;5067248;28;20796;-76
2021/08/19 07:22:56;;;;;;;20.38;11.38;;;;;18.00;100096.00;;;;5067603;28;20055;-78
2021/08/19 07:25:23;;;;;;;16.73;11.10;;;;;18.10;100082.00;;;;5067420;28;20086;-79
2021/08/19 07:27:50;;;;;;;23.23;11.57;;;;;18.00;100079.00;;;;5068391;28;20028;-76
2021/08/19 07:30:18;;;;;;;18.02;11.15;;;;;18.10;100084.00;;;;5068232;28;20047;-78
2021/08/19 07:32:45;;;;;;;21.55;12.18;;;;;18.20;100058.00;;;;5067583;28;20048;-77
2021/08/19 07:35:13;;;;;;;17.42;11.30;;;;;18.20;100060.00;;;;5068131;28;20050;-79
2021/08/19 07:37:48;;;;;;;19.50;11.57;;;;;18.20;100060.00;;;;5067372;28;20029;-76
2021/08/19 07:40:22;;;;;;;19.67;11.23;;;;;18.30;100053.00;;;;5067866;28;20090;-76
2021/08/19 07:42:52;;;;;;;15.45;10.75;;;;;18.10;100065.00;;;;5068243;28;20040;-76
2021/08/19 07:45:20;;;;;;;17.52;10.93;;;;;18.10;100082.00;;;;5067635;28;20025;-77
2021/08/19 07:47:47;;;;;;;20.33;11.18;;;;;18.10;100078.00;;;;5067279;28;20079;-78
2021/08/19 07:50:14;;;;;;;13.60;10.40;;;;;18.10;100053.00;;;;5067766;28;20082;-75
2021/08/19 07:52:41;;;;;;;19.42;11.05;;;;;18.00;100081.00;;;;5067308;28;20059;-76
2021/08/19 07:55:09;;;;;;;16.02;11.05;;;;;17.90;100069.00;;;;5067295;28;20494;-77
2021/08/19 07:57:50;;;;;;;18.60;10.30;;;;;18.00;100061.00;;;;5066904;28;20123;-77
2021/08/19 08:00:21;;;;;;;19.67;12.10;;;;;17.80;100070.00;;;;5066375;28;20037;-77
2021/08/19 08:02:48;;;;;;;18.33;10.85;;;;;17.80;100054.00;;;;5067446;28;20024;-76
2021/08/19 08:05:15;;;;;;;14.27;10.38;;;;;18.00;100063.00;;;;5067511;28;20036;-76
2021/08/19 08:07:41;;;;;;;19.75;11.60;;;;;18.10;100050.00;;;;5067023;28;20028;-76
2021/08/19 08:10:08;;;;;;;15.57;10.38;;;;;17.90;100029.00;;;;5067017;28;20035;-76
2021/08/19 08:12:34;;;;;;;22.63;11.00;;;;;17.80;100051.00;;;;5066996;28;20039;-77
2021/08/19 08:15:01;;;;;;;19.45;11.30;;;;;18.00;100067.00;;;;5067334;28;20055;-79
2021/08/19 08:17:29;;;;;;;16.33;11.02;;;;;18.00;100064.00;;;;5067613;28;20036;-78
2021/08/19 08:19:55;;;;;;;17.38;10.95;;;;;18.20;100058.00;;;;5066965;28;20025;-76
2021/08/19 08:22:22;;;;;;;18.55;10.77;;;;;18.30;100067.00;;;;5067059;28;20078;-77
2021/08/19 08:24:48;;;;;;;22.08;11.35;;;;;18.30;100062.00;;;;5067141;28;20030;-76
2021/08/19 08:27:15;;;;;;;16.42;10.82;;;;;18.30;100049.00;;;;5066632;28;20411;-80
2021/08/19 08:29:41;;;;;;;17.58;10.10;;;;;18.20;100075.00;;;;5066965;28;20044;-77
2021/08/19 08:32:10;;;;;;;18.88;10.70;;;;;18.10;100042.00;;;;5067276;28;20434;-76
2021/08/19 08:34:39;;;;;;;20.10;11.52;;;;;18.10;100079.00;;;;5067247;28;20035;-76
2021/08/19 08:37:07;;;;;;;14.70;10.35;;;;;18.00;100070.00;;;;5067022;28;20063;-81
2021/08/19 08:39:37;;;;;;;27.83;11.73;;;;;17.90;100066.00;;;;5066605;28;20047;-76
2021/08/19 08:42:06;;;;;;;22.00;10.63;;;;;18.10;100095.00;;;;5066969;28;20028;-77
2021/08/19 08:44:34;;;;;;;20.38;10.32;;;;;17.90;100090.00;;;;5066430;28;20024;-79
2021/08/19 08:47:02;;;;;;;20.00;10.85;;;;;17.70;100096.00;;;;5066877;28;20056;-79
2021/08/19 08:49:29;;;;;;;18.25;10.77;;;;;17.80;100097.00;;;;5066742;28;20043;-79
2021/08/19 08:51:57;;;;;;;19.85;10.68;;;;;17.70;100089.00;;;;5066477;28;20111;-78
2021/08/19 08:54:31;;;;;;;20.48;10.73;;;;;17.50;100105.00;;;;5066462;28;20029;-78
2021/08/19 08:56:59;;;;;;;18.63;11.63;;;;;17.70;100095.00;;;;5066592;28;20491;-77
2021/08/19 08:59:25;;;;;;;15.35;11.00;;;;;17.60;100115.00;;;;5067350;28;20116;-77
2021/08/19 09:01:55;;;;;;;19.42;10.93;;;;;17.70;100098.00;;;;5066644;28;20111;-77
2021/08/19 09:04:23;;;;;;;16.27;11.18;;;;;17.60;100107.00;;;;5066135;28;20514;-78
2021/08/19 09:06:50;;;;;;;29.90;11.90;;;;;17.70;100104.00;;;;5065859;28;20032;-76
2021/08/19 09:09:24;;;;;;;20.13;10.93;;;;;17.60;100122.00;;;;5066772;28;20028;-75
2021/08/19 09:11:56;;;;;;;21.05;10.98;;;;;17.70;100111.00;;;;5066288;28;20036;-79
2021/08/19 09:14:27;;;;;;;20.20;11.23;;;;;17.60;100134.00;;;;5066378;28;20483;-77
2021/08/19 09:16:54;;;;;;;18.30;10.17;;;;;17.70;100116.00;;;;5065639;28;20032;-80
2021/08/19 09:19:27;;;;;;;21.38;10.80;;;;;17.80;100109.00;;;;5066244;28;20025;-76
2021/08/19 09:21:56;;;;;;;16.60;10.60;;;;;17.70;100125.00;;;;5066074;28;20402;-79
2021/08/19 09:24:31;;;;;;;20.13;11.02;;;;;17.90;100112.00;;;;5067157;28;20042;-77
2021/08/19 09:27:16;;;;;;;19.45;11.50;;;;;17.80;100121.00;;;;5066244;28;20037;-77
2021/08/19 09:29:46;;;;;;;14.23;9.98;;;;;17.70;100109.00;;;;5066280;28;20040;-77
2021/08/19 09:32:15;;;;;;;13.57;10.32;;;;;17.80;100141.00;;;;5066435;28;20149;-79
2021/08/19 09:34:45;;;;;;;17.50;10.20;;;;;17.90;100118.00;;;;5066264;28;20445;-80
2021/08/19 09:37:14;;;;;;;11.80;10.05;;;;;17.90;100142.00;;;;5065747;28;20488;-79
2021/08/19 09:39:42;;;;;;;23.25;10.55;;;;;17.80;100126.00;;;;5065962;28;20025;-79
2021/08/19 09:42:10;;;;;;;18.20;9.80;;;;;17.80;100124.00;;;;5065570;28;20129;-80
2021/08/19 09:44:38;;;;;;;15.43;9.98;;;;;17.80;100131.00;;;;5066814;28;20029;-79
2021/08/19 09:47:06;;;;;;;21.17;9.85;;;;;17.80;100126.00;;;;5069645;28;20048;-78
2021/08/19 09:49:37;;;;;;;17.73;10.30;;;;;17.80;100116.00;;;;5069412;28;20396;-79
2021/08/19 09:52:07;;;;;;;15.73;10.70;;;;;17.70;100135.00;;;;5070148;28;20043;-77
2021/08/19 09:54:36;;;;;;;26.35;10.55;;;;;17.70;100134.00;;;;5069282;28;20119;-77
2021/08/19 09:57:04;;;;;;;13.55;9.77;;;;;17.80;100147.00;;;;5069440;28;20032;-79
2021/08/19 09:59:38;;;;;;;15.15;10.32;;;;;17.80;100115.00;;;;5069473;28;20035;-80
2021/08/19 10:02:06;;;;;;;23.65;10.32;;;;;18.00;100128.00;;;;5069554;28;20441;-80
2021/08/19 10:04:34;;;;;;;16.27;9.75;;;;;18.20;100137.00;;;;5069162;28;20036;-80
2021/08/19 10:07:02;;;;;;;19.08;9.57;;;;;18.20;100140.00;;;;5068945;28;20127;-77
2021/08/19 10:09:29;;;;;;;20.13;9.82;;;;;18.20;100120.00;;;;5068953;28;20028;-78
2021/08/19 10:11:58;;;;;;;26.55;9.63;;;;;18.40;100140.00;;;;5069495;28;20056;-81
2021/08/19 10:14:27;;;;;;;13.20;9.45;;;;;18.50;100142.00;;;;5069927;28;20036;-80
2021/08/19 10:16:55;;;;;;;23.60;9.90;;;;;18.40;100137.00;;;;5069243;28;20071;-81
2021/08/19 10:19:27;;;;;;;16.73;9.32;;;;;18.40;100143.00;;;;5069218;28;20135;-80
2021/08/19 10:22:04;;;;;;;12.63;9.25;;;;;18.40;100127.00;;;;5069568;28;20094;-78
2021/08/19 10:24:36;;;;;;;18.10;9.98;;;;;18.30;100134.00;;;;5069766;28;20070;-77
2021/08/19 10:27:18;;;;;;;15.73;10.20;;;;;18.30;100149.00;;;;5069120;28;20124;-83
2021/08/19 10:29:48;;;;;;;21.20;9.95;;;;;18.30;100144.00;;;;5068498;28;20395;-79
2021/08/19 10:32:25;;;;;;;22.58;12.98;;;;;18.40;100146.00;;;;5068554;28;20039;-81
2021/08/19 10:34:59;;;;;;;29.15;22.80;;;;;18.60;100147.00;;;;5067450;28;20021;-77
2021/08/19 10:37:52;;;;;;;26.75;19.67;;;;;18.70;100153.00;;;;5068647;28;20033;-78
2021/08/19 10:40:24;;;;;;;18.25;11.70;;;;;18.80;100154.00;;;;5066646;28;20076;-78
2021/08/19 10:42:56;;;;;;;18.48;10.60;;;;;19.00;100139.00;;;;5068526;28;20116;-79
2021/08/19 10:45:29;;;;;;;16.42;10.27;;;;;19.30;100145.00;;;;5069156;28;20029;-78
2021/08/19 10:48:15;;;;;;;16.10;9.40;;;;;19.40;100139.00;;;;5068512;28;20053;-77
2021/08/19 10:50:46;;;;;;;15.75;9.70;;;;;19.70;100122.00;;;;5068936;28;20032;-78
2021/08/19 10:53:14;;;;;;;11.32;7.88;;;;;19.80;100145.00;;;;5069059;28;20031;-79
2021/08/19 10:55:45;;;;;;;12.43;9.00;;;;;20.10;100127.00;;;;5068620;28;20107;-81
2021/08/19 10:58:33;;;;;;;18.33;9.45;;;;;20.40;100144.00;;;;5068723;28;20120;-81
2021/08/19 11:01:20;;;;;;;14.85;9.40;;;;;20.60;100118.00;;;;5068859;28;20118;-77
2021/08/19 11:03:48;;;;;;;13.05;9.60;;;;;20.80;100116.00;;;;5057375;28;20042;-81
2021/08/19 11:06:42;;;;;;;13.43;8.65;;;;;21.80;100083.00;;;;5068178;28;20085;-79
2021/08/19 11:09:15;;;;;;;12.13;8.73;;;;;22.80;100086.00;;;;5052944;28;20115;-80
2021/08/19 11:11:42;;;;;;;23.85;8.68;;;;;23.60;100040.00;;;;5068865;28;20028;-82
2021/08/19 11:14:10;;;;;;;18.15;8.13;;;;;24.60;100022.00;;;;5067923;28;20551;-81
2021/08/19 11:16:38;;;;;;;17.27;8.18;;;;;25.20;100000.00;;;;5068477;28;20032;-81
2021/08/19 11:19:22;;;;;;;15.40;8.27;;;;;25.70;99999.00;;;;5067926;28;20124;-80
2021/08/19 11:21:50;;;;;;;10.05;7.43;;;;;26.20;100004.00;;;;5067927;28;20383;-79
2021/08/19 11:24:17;;;;;;;12.23;7.22;;;;;26.50;100006.00;;;;5068113;28;20368;-80
2021/08/19 11:27:04;;;;;;;17.98;7.80;;;;;27.30;99983.00;;;;5068184;28;20025;-81
2021/08/19 11:29:39;;;;;;;15.93;7.85;;;;;27.40;99974.00;;;;5067800;28;20033;-77
2021/08/19 11:32:07;;;;;;;18.33;8.23;;;;;27.40;99961.00;;;;5067811;28;20059;-81
2021/08/19 11:34:34;;;;;;;14.80;7.57;;;;;27.80;99940.00;;;;5067768;28;20021;-84
2021/08/19 11:37:01;;;;;;;14.00;7.50;;;;;28.10;99949.00;;;;5068024;28;20403;-78
2021/08/19 11:39:30;;;;;;;15.63;7.05;;;;;28.90;99957.00;;;;5067501;28;20459;-80
2021/08/19 11:42:05;;;;;;;12.73;7.55;;;;;29.20;99953.00;;;;5067863;28;20040;-78
2021/08/19 11:44:32;;;;;;;13.88;7.13;;;;;29.10;99957.00;;;;5067327;28;20578;-78
2021/08/19 11:47:12;;;;;;;12.77;6.63;;;;;29.60;99988.00;;;;5067456;28;20052;-78
2021/08/19 11:49:39;;;;;;;29.30;9.45;;;;;29.80;99991.00;;;;5067788;28;20108;-83
2021/08/19 11:52:09;;;;;;;24.13;7.40;;;;;30.20;99980.00;;;;5067346;28;20020;-83
2021/08/19 11:54:47;;;;;;;21.67;8.15;;;;;30.90;99975.00;;;;5067004;28;20028;-80
2021/08/19 11:57:24;;;;;;;13.43;7.57;;;;;31.10;99982.00;;;;5067150;28;20101;-80
2021/08/19 11:59:57;;;;;;;22.55;6.75;;;;;31.40;99968.00;;;;5067352;28;20033;-83